sensor_id;sensor_type;location;lat;lon;timestamp;P1;durP1;ratioP1;P2;durP2;ratioP2
20727;SDS011;10525;50.154;8.198;2022-12-07T00:01:05;27.20;;;11.83;;
20727;SDS011;10525;50.154;8.198;2022-12-07T00:03:33;29.03;;;11.80;;
20727;SDS011;10525;50.154;8.198;2022-12-07T00:06:00;29.13;;;11.53;;
20727;SDS011;10525;50.154;8.198;2022-12-07T00:08:28;27.07;;;11.03;;
20727;SDS011;10525;50.154;8.198;2022-12-07T00:10:59;25.03;;;10.67;;
20727;SDS011;10525;50.154;8.198;2022-12-07T00:13:27;23.67;;;10.47;;
20727;SDS011;10525;50.154;8.198;2022-12-07T00:15:53;31.23;;;10.97;;
20727;SDS011;10525;50.154;8.198;2022-12-07T00:18:21;27.57;;;10.73;;
20727;SDS011;10525;50.154;8.198;2022-12-07T00:20:48;29.03;;;10.53;;
20727;SDS011;10525;50.154;8.198;2022-12-07T00:23:15;29.53;;;11.10;;
20727;SDS011;10525;50.154;8.198;2022-12-07T00:25:41;24.63;;;10.27;;
20727;SDS011;10525;50.154;8.198;2022-12-07T00:28:08;29.30;;;9.87;;
20727;SDS011;10525;50.154;8.198;2022-12-07T00:30:35;31.17;;;10.53;;
20727;SDS011;10525;50.154;8.198;2022-12-07T00:33:02;26.83;;;9.83;;
20727;SDS011;10525;50.154;8.198;2022-12-07T00:35:30;21.87;;;9.60;;
20727;SDS011;10525;50.154;8.198;2022-12-07T00:37:57;21.70;;;9.47;;
20727;SDS011;10525;50.154;8.198;2022-12-07T00:40:23;26.27;;;10.53;;
20727;SDS011;10525;50.154;8.198;2022-12-07T00:42:50;23.87;;;9.77;;
20727;SDS011;10525;50.154;8.198;2022-12-07T00:45:17;28.17;;;10.53;;
20727;SDS011;10525;50.154;8.198;2022-12-07T00:47:43;29.43;;;10.47;;
20727;SDS011;10525;50.154;8.198;2022-12-07T00:50:10;27.90;;;11.33;;
20727;SDS011;10525;50.154;8.198;2022-12-07T00:52:38;29.40;;;11.73;;
20727;SDS011;10525;50.154;8.198;2022-12-07T00:55:05;22.57;;;10.60;;
20727;SDS011;10525;50.154;8.198;2022-12-07T00:57:32;23.77;;;9.70;;
20727;SDS011;10525;50.154;8.198;2022-12-07T00:59:59;21.53;;;9.93;;
20727;SDS011;10525;50.154;8.198;2022-12-07T01:02:26;24.70;;;9.87;;
20727;SDS011;10525;50.154;8.198;2022-12-07T01:04:52;22.67;;;8.90;;
20727;SDS011;10525;50.154;8.198;2022-12-07T01:07:19;26.30;;;9.60;;
20727;SDS011;10525;50.154;8.198;2022-12-07T01:09:47;27.27;;;9.90;;
20727;SDS011;10525;50.154;8.198;2022-12-07T01:12:14;20.10;;;8.90;;
20727;SDS011;10525;50.154;8.198;2022-12-07T01:14:41;23.13;;;9.67;;
20727;SDS011;10525;50.154;8.198;2022-12-07T01:17:08;20.17;;;8.97;;
20727;SDS011;10525;50.154;8.198;2022-12-07T01:19:34;19.57;;;8.83;;
20727;SDS011;10525;50.154;8.198;2022-12-07T01:22:01;24.10;;;9.27;;
20727;SDS011;10525;50.154;8.198;2022-12-07T01:24:28;18.93;;;8.77;;
20727;SDS011;10525;50.154;8.198;2022-12-07T01:26:56;20.47;;;9.00;;
20727;SDS011;10525;50.154;8.198;2022-12-07T01:29:22;17.33;;;8.07;;
20727;SDS011;10525;50.154;8.198;2022-12-07T01:31:49;26.77;;;8.70;;
20727;SDS011;10525;50.154;8.198;2022-12-07T01:34:16;19.57;;;7.67;;
20727;SDS011;10525;50.154;8.198;2022-12-07T01:36:42;21.67;;;8.40;;
20727;SDS011;10525;50.154;8.198;2022-12-07T01:39:09;18.90;;;8.53;;
20727;SDS011;10525;50.154;8.198;2022-12-07T01:41:37;16.17;;;7.67;;
20727;SDS011;10525;50.154;8.198;2022-12-07T01:44:11;16.17;;;8.23;;
20727;SDS011;10525;50.154;8.198;2022-12-07T01:46:40;19.73;;;7.93;;
20727;SDS011;10525;50.154;8.198;2022-12-07T01:49:09;19.80;;;7.87;;
20727;SDS011;10525;50.154;8.198;2022-12-07T01:51:40;15.13;;;7.10;;
20727;SDS011;10525;50.154;8.198;2022-12-07T01:54:09;12.32;;;6.55;;
20727;SDS011;10525;50.154;8.198;2022-12-07T01:56:38;16.85;;;7.32;;
20727;SDS011;10525;50.154;8.198;2022-12-07T01:59:08;14.50;;;7.07;;
20727;SDS011;10525;50.154;8.198;2022-12-07T02:01:36;11.63;;;6.37;;
20727;SDS011;10525;50.154;8.198;2022-12-07T02:04:03;14.60;;;6.43;;
20727;SDS011;10525;50.154;8.198;2022-12-07T02:06:31;11.10;;;6.90;;
20727;SDS011;10525;50.154;8.198;2022-12-07T02:08:59;17.83;;;6.83;;
20727;SDS011;10525;50.154;8.198;2022-12-07T02:11:25;13.63;;;6.20;;
20727;SDS011;10525;50.154;8.198;2022-12-07T02:13:52;13.30;;;6.40;;
20727;SDS011;10525;50.154;8.198;2022-12-07T02:16:23;13.35;;;6.95;;
20727;SDS011;10525;50.154;8.198;2022-12-07T02:18:58;10.73;;;5.47;;
20727;SDS011;10525;50.154;8.198;2022-12-07T02:21:49;10.20;;;6.03;;
20727;SDS011;10525;50.154;8.198;2022-12-07T02:27:25;15.47;;;5.73;;
20727;SDS011;10525;50.154;8.198;2022-12-07T02:30:05;9.93;;;5.90;;
20727;SDS011;10525;50.154;8.198;2022-12-07T02:32:37;8.30;;;5.30;;
20727;SDS011;10525;50.154;8.198;2022-12-07T02:35:12;12.33;;;6.07;;
20727;SDS011;10525;50.154;8.198;2022-12-07T02:37:47;10.07;;;5.75;;
20727;SDS011;10525;50.154;8.198;2022-12-07T02:40:25;11.37;;;6.00;;
20727;SDS011;10525;50.154;8.198;2022-12-07T02:42:57;13.20;;;7.00;;
20727;SDS011;10525;50.154;8.198;2022-12-07T02:45:31;16.27;;;7.40;;
20727;SDS011;10525;50.154;8.198;2022-12-07T02:48:00;13.47;;;6.57;;
20727;SDS011;10525;50.154;8.198;2022-12-07T02:50:29;15.53;;;6.77;;
20727;SDS011;10525;50.154;8.198;2022-12-07T02:52:56;17.13;;;6.47;;
20727;SDS011;10525;50.154;8.198;2022-12-07T02:55:25;10.57;;;6.50;;
20727;SDS011;10525;50.154;8.198;2022-12-07T02:58:00;11.88;;;6.68;;
20727;SDS011;10525;50.154;8.198;2022-12-07T03:00:41;11.77;;;6.70;;
20727;SDS011;10525;50.154;8.198;2022-12-07T03:03:17;14.83;;;6.77;;
20727;SDS011;10525;50.154;8.198;2022-12-07T03:08:38;15.82;;;7.38;;
20727;SDS011;10525;50.154;8.198;2022-12-07T03:11:14;13.85;;;6.97;;
20727;SDS011;10525;50.154;8.198;2022-12-07T03:13:48;17.00;;;7.10;;
20727;SDS011;10525;50.154;8.198;2022-12-07T03:16:19;15.53;;;7.67;;
20727;SDS011;10525;50.154;8.198;2022-12-07T03:18:50;21.70;;;7.93;;
20727;SDS011;10525;50.154;8.198;2022-12-07T03:21:20;17.90;;;7.85;;
20727;SDS011;10525;50.154;8.198;2022-12-07T03:23:49;17.00;;;7.97;;
20727;SDS011;10525;50.154;8.198;2022-12-07T03:26:19;16.38;;;8.02;;
20727;SDS011;10525;50.154;8.198;2022-12-07T03:28:51;13.13;;;7.93;;
20727;SDS011;10525;50.154;8.198;2022-12-07T03:31:23;19.38;;;8.30;;
20727;SDS011;10525;50.154;8.198;2022-12-07T03:33:53;17.33;;;8.50;;
20727;SDS011;10525;50.154;8.198;2022-12-07T03:36:26;15.07;;;8.30;;
20727;SDS011;10525;50.154;8.198;2022-12-07T03:38:57;18.27;;;8.60;;
20727;SDS011;10525;50.154;8.198;2022-12-07T03:41:31;16.47;;;8.50;;
20727;SDS011;10525;50.154;8.198;2022-12-07T03:43:59;15.13;;;8.40;;
20727;SDS011;10525;50.154;8.198;2022-12-07T03:46:29;20.85;;;8.38;;
20727;SDS011;10525;50.154;8.198;2022-12-07T03:49:04;15.30;;;7.73;;
20727;SDS011;10525;50.154;8.198;2022-12-07T03:51:37;17.93;;;8.67;;
20727;SDS011;10525;50.154;8.198;2022-12-07T03:54:10;29.97;;;9.33;;
20727;SDS011;10525;50.154;8.198;2022-12-07T03:56:40;19.92;;;8.70;;
20727;SDS011;10525;50.154;8.198;2022-12-07T03:59:09;19.67;;;9.77;;
20727;SDS011;10525;50.154;8.198;2022-12-07T04:01:38;16.50;;;8.70;;
20727;SDS011;10525;50.154;8.198;2022-12-07T04:04:07;19.63;;;9.30;;
20727;SDS011;10525;50.154;8.198;2022-12-07T04:06:34;18.43;;;9.03;;
20727;SDS011;10525;50.154;8.198;2022-12-07T04:09:01;18.00;;;9.13;;
20727;SDS011;10525;50.154;8.198;2022-12-07T04:11:28;21.73;;;9.13;;
20727;SDS011;10525;50.154;8.198;2022-12-07T04:13:55;19.40;;;9.30;;
20727;SDS011;10525;50.154;8.198;2022-12-07T04:16:40;21.87;;;9.80;;
20727;SDS011;10525;50.154;8.198;2022-12-07T04:19:07;18.67;;;9.18;;
20727;SDS011;10525;50.154;8.198;2022-12-07T04:21:33;18.42;;;10.05;;
20727;SDS011;10525;50.154;8.198;2022-12-07T04:24:00;20.88;;;9.23;;
20727;SDS011;10525;50.154;8.198;2022-12-07T04:26:27;18.35;;;9.65;;
20727;SDS011;10525;50.154;8.198;2022-12-07T04:28:54;24.60;;;9.88;;
20727;SDS011;10525;50.154;8.198;2022-12-07T04:31:21;23.13;;;10.60;;
20727;SDS011;10525;50.154;8.198;2022-12-07T04:33:49;23.33;;;10.73;;
20727;SDS011;10525;50.154;8.198;2022-12-07T04:36:15;29.75;;;10.25;;
20727;SDS011;10525;50.154;8.198;2022-12-07T04:38:44;21.60;;;10.30;;
20727;SDS011;10525;50.154;8.198;2022-12-07T04:41:11;25.23;;;11.37;;
20727;SDS011;10525;50.154;8.198;2022-12-07T04:43:38;23.88;;;10.68;;
20727;SDS011;10525;50.154;8.198;2022-12-07T04:46:05;21.48;;;10.07;;
20727;SDS011;10525;50.154;8.198;2022-12-07T04:48:32;28.65;;;10.32;;
20727;SDS011;10525;50.154;8.198;2022-12-07T04:51:00;22.17;;;10.05;;
20727;SDS011;10525;50.154;8.198;2022-12-07T04:53:28;22.83;;;9.80;;
20727;SDS011;10525;50.154;8.198;2022-12-07T04:55:55;22.77;;;10.43;;
20727;SDS011;10525;50.154;8.198;2022-12-07T04:58:22;18.77;;;10.30;;
20727;SDS011;10525;50.154;8.198;2022-12-07T05:00:48;25.90;;;10.60;;
20727;SDS011;10525;50.154;8.198;2022-12-07T05:03:15;22.07;;;10.50;;
20727;SDS011;10525;50.154;8.198;2022-12-07T05:05:42;24.02;;;10.10;;
20727;SDS011;10525;50.154;8.198;2022-12-07T05:08:10;24.13;;;10.13;;
20727;SDS011;10525;50.154;8.198;2022-12-07T05:10:36;21.93;;;10.07;;
20727;SDS011;10525;50.154;8.198;2022-12-07T05:13:03;23.80;;;10.80;;
20727;SDS011;10525;50.154;8.198;2022-12-07T05:15:30;22.80;;;10.73;;
20727;SDS011;10525;50.154;8.198;2022-12-07T05:17:56;21.30;;;10.17;;
20727;SDS011;10525;50.154;8.198;2022-12-07T05:20:23;16.85;;;9.20;;
20727;SDS011;10525;50.154;8.198;2022-12-07T05:22:50;24.60;;;11.43;;
20727;SDS011;10525;50.154;8.198;2022-12-07T05:25:18;20.67;;;9.93;;
20727;SDS011;10525;50.154;8.198;2022-12-07T05:27:44;23.27;;;10.80;;
20727;SDS011;10525;50.154;8.198;2022-12-07T05:30:12;20.65;;;10.43;;
20727;SDS011;10525;50.154;8.198;2022-12-07T05:32:39;18.70;;;10.07;;
20727;SDS011;10525;50.154;8.198;2022-12-07T05:35:06;18.88;;;9.82;;
20727;SDS011;10525;50.154;8.198;2022-12-07T05:37:33;26.35;;;11.07;;
20727;SDS011;10525;50.154;8.198;2022-12-07T05:40:00;19.35;;;9.70;;
20727;SDS011;10525;50.154;8.198;2022-12-07T05:42:28;21.25;;;10.38;;
20727;SDS011;10525;50.154;8.198;2022-12-07T05:44:54;18.38;;;9.93;;
20727;SDS011;10525;50.154;8.198;2022-12-07T05:47:21;20.55;;;10.60;;
20727;SDS011;10525;50.154;8.198;2022-12-07T05:49:48;19.15;;;9.68;;
20727;SDS011;10525;50.154;8.198;2022-12-07T05:52:15;24.85;;;10.50;;
20727;SDS011;10525;50.154;8.198;2022-12-07T05:54:41;21.42;;;10.45;;
20727;SDS011;10525;50.154;8.198;2022-12-07T05:57:08;22.02;;;9.88;;
20727;SDS011;10525;50.154;8.198;2022-12-07T05:59:36;19.88;;;8.35;;
20727;SDS011;10525;50.154;8.198;2022-12-07T06:02:03;14.40;;;8.02;;
20727;SDS011;10525;50.154;8.198;2022-12-07T06:04:31;15.43;;;9.27;;
20727;SDS011;10525;50.154;8.198;2022-12-07T06:06:59;14.65;;;7.88;;
20727;SDS011;10525;50.154;8.198;2022-12-07T06:09:26;16.90;;;9.00;;
20727;SDS011;10525;50.154;8.198;2022-12-07T06:11:54;16.40;;;8.50;;
20727;SDS011;10525;50.154;8.198;2022-12-07T06:14:40;18.30;;;8.07;;
20727;SDS011;10525;50.154;8.198;2022-12-07T06:17:07;14.87;;;8.53;;
20727;SDS011;10525;50.154;8.198;2022-12-07T06:19:35;19.85;;;8.57;;
20727;SDS011;10525;50.154;8.198;2022-12-07T06:22:02;20.15;;;9.32;;
20727;SDS011;10525;50.154;8.198;2022-12-07T06:24:30;21.48;;;9.00;;
20727;SDS011;10525;50.154;8.198;2022-12-07T06:26:57;18.63;;;8.23;;
20727;SDS011;10525;50.154;8.198;2022-12-07T06:29:24;14.00;;;7.95;;
20727;SDS011;10525;50.154;8.198;2022-12-07T06:31:52;12.63;;;7.38;;
20727;SDS011;10525;50.154;8.198;2022-12-07T06:34:19;13.23;;;7.40;;
20727;SDS011;10525;50.154;8.198;2022-12-07T06:36:47;11.13;;;6.75;;
20727;SDS011;10525;50.154;8.198;2022-12-07T06:39:17;10.82;;;6.43;;
20727;SDS011;10525;50.154;8.198;2022-12-07T06:41:43;12.30;;;6.90;;
20727;SDS011;10525;50.154;8.198;2022-12-07T06:44:10;12.55;;;7.00;;
20727;SDS011;10525;50.154;8.198;2022-12-07T06:46:37;14.07;;;7.75;;
20727;SDS011;10525;50.154;8.198;2022-12-07T06:49:05;10.93;;;6.60;;
20727;SDS011;10525;50.154;8.198;2022-12-07T06:51:32;11.20;;;6.60;;
20727;SDS011;10525;50.154;8.198;2022-12-07T06:54:01;11.80;;;6.15;;
20727;SDS011;10525;50.154;8.198;2022-12-07T06:56:28;12.45;;;6.78;;
20727;SDS011;10525;50.154;8.198;2022-12-07T06:58:55;11.40;;;6.73;;
20727;SDS011;10525;50.154;8.198;2022-12-07T07:01:21;11.83;;;7.23;;
20727;SDS011;10525;50.154;8.198;2022-12-07T07:03:48;12.53;;;6.30;;
20727;SDS011;10525;50.154;8.198;2022-12-07T07:06:16;10.87;;;5.60;;
20727;SDS011;10525;50.154;8.198;2022-12-07T07:08:43;9.60;;;5.33;;
20727;SDS011;10525;50.154;8.198;2022-12-07T07:11:09;11.70;;;6.43;;
20727;SDS011;10525;50.154;8.198;2022-12-07T07:13:36;11.50;;;6.30;;
20727;SDS011;10525;50.154;8.198;2022-12-07T07:16:03;14.90;;;6.53;;
20727;SDS011;10525;50.154;8.198;2022-12-07T07:18:31;11.63;;;6.90;;
20727;SDS011;10525;50.154;8.198;2022-12-07T07:20:57;11.67;;;7.73;;
20727;SDS011;10525;50.154;8.198;2022-12-07T07:23:26;13.07;;;6.37;;
20727;SDS011;10525;50.154;8.198;2022-12-07T07:25:53;8.87;;;5.67;;
20727;SDS011;10525;50.154;8.198;2022-12-07T07:28:19;11.97;;;6.63;;
20727;SDS011;10525;50.154;8.198;2022-12-07T07:30:46;10.03;;;6.60;;
20727;SDS011;10525;50.154;8.198;2022-12-07T07:33:13;13.83;;;7.03;;
20727;SDS011;10525;50.154;8.198;2022-12-07T07:35:40;14.57;;;6.97;;
20727;SDS011;10525;50.154;8.198;2022-12-07T07:38:07;11.93;;;7.53;;
20727;SDS011;10525;50.154;8.198;2022-12-07T07:40:36;10.87;;;6.87;;
20727;SDS011;10525;50.154;8.198;2022-12-07T07:43:03;13.93;;;6.87;;
20727;SDS011;10525;50.154;8.198;2022-12-07T07:45:29;12.90;;;7.83;;
20727;SDS011;10525;50.154;8.198;2022-12-07T07:47:56;14.97;;;7.40;;
20727;SDS011;10525;50.154;8.198;2022-12-07T07:50:23;12.77;;;6.70;;
20727;SDS011;10525;50.154;8.198;2022-12-07T07:52:50;11.63;;;6.73;;
20727;SDS011;10525;50.154;8.198;2022-12-07T07:55:17;10.67;;;6.10;;
20727;SDS011;10525;50.154;8.198;2022-12-07T07:57:45;13.90;;;6.55;;
20727;SDS011;10525;50.154;8.198;2022-12-07T08:00:12;9.80;;;5.93;;
20727;SDS011;10525;50.154;8.198;2022-12-07T08:02:40;10.70;;;6.30;;
20727;SDS011;10525;50.154;8.198;2022-12-07T08:05:08;9.27;;;5.97;;
20727;SDS011;10525;50.154;8.198;2022-12-07T08:07:36;13.93;;;6.70;;
20727;SDS011;10525;50.154;8.198;2022-12-07T08:10:03;9.03;;;5.90;;
20727;SDS011;10525;50.154;8.198;2022-12-07T08:12:31;11.13;;;6.30;;
20727;SDS011;10525;50.154;8.198;2022-12-07T08:15:04;8.80;;;6.18;;
20727;SDS011;10525;50.154;8.198;2022-12-07T08:17:32;10.23;;;6.40;;
20727;SDS011;10525;50.154;8.198;2022-12-07T08:19:59;11.43;;;6.37;;
20727;SDS011;10525;50.154;8.198;2022-12-07T08:22:26;13.37;;;6.40;;
20727;SDS011;10525;50.154;8.198;2022-12-07T08:24:53;14.50;;;7.13;;
20727;SDS011;10525;50.154;8.198;2022-12-07T08:27:19;17.43;;;8.20;;
20727;SDS011;10525;50.154;8.198;2022-12-07T08:29:48;13.82;;;7.32;;
20727;SDS011;10525;50.154;8.198;2022-12-07T08:32:16;13.43;;;7.00;;
20727;SDS011;10525;50.154;8.198;2022-12-07T08:34:43;13.98;;;6.72;;
20727;SDS011;10525;50.154;8.198;2022-12-07T08:37:10;13.07;;;7.28;;
20727;SDS011;10525;50.154;8.198;2022-12-07T08:39:37;12.60;;;7.43;;
20727;SDS011;10525;50.154;8.198;2022-12-07T08:42:04;13.07;;;7.30;;
20727;SDS011;10525;50.154;8.198;2022-12-07T08:44:30;15.00;;;7.50;;
20727;SDS011;10525;50.154;8.198;2022-12-07T08:46:58;13.30;;;6.85;;
20727;SDS011;10525;50.154;8.198;2022-12-07T08:49:30;11.10;;;7.05;;
20727;SDS011;10525;50.154;8.198;2022-12-07T08:51:59;13.53;;;6.53;;
20727;SDS011;10525;50.154;8.198;2022-12-07T08:54:27;11.93;;;7.03;;
20727;SDS011;10525;50.154;8.198;2022-12-07T08:56:54;13.07;;;5.83;;
20727;SDS011;10525;50.154;8.198;2022-12-07T08:59:22;11.40;;;6.63;;
20727;SDS011;10525;50.154;8.198;2022-12-07T09:01:49;13.13;;;6.25;;
20727;SDS011;10525;50.154;8.198;2022-12-07T09:04:16;10.90;;;6.10;;
20727;SDS011;10525;50.154;8.198;2022-12-07T09:06:44;13.43;;;5.82;;
20727;SDS011;10525;50.154;8.198;2022-12-07T09:09:10;7.63;;;5.40;;
20727;SDS011;10525;50.154;8.198;2022-12-07T09:11:39;11.75;;;6.03;;
20727;SDS011;10525;50.154;8.198;2022-12-07T09:14:06;9.65;;;6.05;;
20727;SDS011;10525;50.154;8.198;2022-12-07T09:16:33;8.70;;;5.82;;
20727;SDS011;10525;50.154;8.198;2022-12-07T09:18:59;12.70;;;6.85;;
20727;SDS011;10525;50.154;8.198;2022-12-07T09:21:26;10.85;;;6.03;;
20727;SDS011;10525;50.154;8.198;2022-12-07T09:23:54;9.02;;;5.57;;
20727;SDS011;10525;50.154;8.198;2022-12-07T09:26:21;8.05;;;5.65;;
20727;SDS011;10525;50.154;8.198;2022-12-07T09:28:48;12.27;;;5.80;;
20727;SDS011;10525;50.154;8.198;2022-12-07T09:31:14;8.48;;;6.28;;
20727;SDS011;10525;50.154;8.198;2022-12-07T09:33:41;8.60;;;5.70;;
20727;SDS011;10525;50.154;8.198;2022-12-07T09:36:08;9.35;;;5.97;;
20727;SDS011;10525;50.154;8.198;2022-12-07T09:38:35;14.98;;;5.72;;
20727;SDS011;10525;50.154;8.198;2022-12-07T09:41:05;10.10;;;6.55;;
20727;SDS011;10525;50.154;8.198;2022-12-07T09:43:33;7.53;;;5.63;;
20727;SDS011;10525;50.154;8.198;2022-12-07T09:46:01;11.00;;;5.80;;
20727;SDS011;10525;50.154;8.198;2022-12-07T09:48:29;8.18;;;5.35;;
20727;SDS011;10525;50.154;8.198;2022-12-07T09:50:58;7.22;;;4.80;;
20727;SDS011;10525;50.154;8.198;2022-12-07T09:53:27;7.78;;;4.80;;
20727;SDS011;10525;50.154;8.198;2022-12-07T09:55:59;6.68;;;5.35;;
20727;SDS011;10525;50.154;8.198;2022-12-07T09:58:28;12.55;;;5.15;;
20727;SDS011;10525;50.154;8.198;2022-12-07T10:00:56;10.10;;;5.20;;
20727;SDS011;10525;50.154;8.198;2022-12-07T10:03:25;9.80;;;5.57;;
20727;SDS011;10525;50.154;8.198;2022-12-07T10:05:53;9.90;;;6.15;;
20727;SDS011;10525;50.154;8.198;2022-12-07T10:08:20;6.50;;;4.88;;
20727;SDS011;10525;50.154;8.198;2022-12-07T10:10:49;14.57;;;6.05;;
20727;SDS011;10525;50.154;8.198;2022-12-07T10:13:19;11.02;;;5.65;;
20727;SDS011;10525;50.154;8.198;2022-12-07T10:15:50;9.00;;;5.25;;
20727;SDS011;10525;50.154;8.198;2022-12-07T10:18:28;13.25;;;5.93;;
20727;SDS011;10525;50.154;8.198;2022-12-07T10:21:00;9.02;;;4.68;;
20727;SDS011;10525;50.154;8.198;2022-12-07T10:23:29;10.18;;;4.63;;
20727;SDS011;10525;50.154;8.198;2022-12-07T10:25:56;13.10;;;4.97;;
20727;SDS011;10525;50.154;8.198;2022-12-07T10:28:22;8.75;;;5.25;;
20727;SDS011;10525;50.154;8.198;2022-12-07T10:30:58;6.13;;;4.53;;
20727;SDS011;10525;50.154;8.198;2022-12-07T10:33:29;4.60;;;3.65;;
20727;SDS011;10525;50.154;8.198;2022-12-07T10:35:58;5.43;;;3.30;;
20727;SDS011;10525;50.154;8.198;2022-12-07T10:38:25;7.70;;;3.47;;
20727;SDS011;10525;50.154;8.198;2022-12-07T10:41:02;3.78;;;3.15;;
20727;SDS011;10525;50.154;8.198;2022-12-07T10:43:30;4.18;;;3.30;;
20727;SDS011;10525;50.154;8.198;2022-12-07T10:46:17;4.40;;;3.97;;
20727;SDS011;10525;50.154;8.198;2022-12-07T10:49:17;4.78;;;2.85;;
20727;SDS011;10525;50.154;8.198;2022-12-07T10:52:08;7.00;;;2.92;;
20727;SDS011;10525;50.154;8.198;2022-12-07T10:54:45;3.67;;;3.00;;
20727;SDS011;10525;50.154;8.198;2022-12-07T10:57:21;4.10;;;3.10;;
20727;SDS011;10525;50.154;8.198;2022-12-07T11:00:00;3.15;;;2.95;;
20727;SDS011;10525;50.154;8.198;2022-12-07T11:05:51;4.50;;;3.05;;
20727;SDS011;10525;50.154;8.198;2022-12-07T11:08:25;5.25;;;2.63;;
20727;SDS011;10525;50.154;8.198;2022-12-07T11:11:02;2.88;;;2.75;;
20727;SDS011;10525;50.154;8.198;2022-12-07T11:13:37;2.85;;;2.33;;
20727;SDS011;10525;50.154;8.198;2022-12-07T11:16:16;4.50;;;3.00;;
20727;SDS011;10525;50.154;8.198;2022-12-07T11:18:52;7.50;;;3.33;;
20727;SDS011;10525;50.154;8.198;2022-12-07T11:21:32;5.55;;;2.65;;
20727;SDS011;10525;50.154;8.198;2022-12-07T11:24:10;3.90;;;2.83;;
20727;SDS011;10525;50.154;8.198;2022-12-07T11:26:54;3.63;;;2.50;;
20727;SDS011;10525;50.154;8.198;2022-12-07T11:29:43;2.63;;;2.50;;
20727;SDS011;10525;50.154;8.198;2022-12-07T11:32:37;5.03;;;2.42;;
20727;SDS011;10525;50.154;8.198;2022-12-07T11:35:33;4.82;;;2.25;;
20727;SDS011;10525;50.154;8.198;2022-12-07T11:38:10;2.75;;;2.08;;
20727;SDS011;10525;50.154;8.198;2022-12-07T11:40:40;10.57;;;2.55;;
20727;SDS011;10525;50.154;8.198;2022-12-07T11:43:13;2.72;;;2.53;;
20727;SDS011;10525;50.154;8.198;2022-12-07T11:45:46;9.93;;;3.28;;
20727;SDS011;10525;50.154;8.198;2022-12-07T11:48:19;2.78;;;2.58;;
20727;SDS011;10525;50.154;8.198;2022-12-07T11:50:51;3.00;;;2.80;;
20727;SDS011;10525;50.154;8.198;2022-12-07T11:53:22;2.75;;;2.65;;
20727;SDS011;10525;50.154;8.198;2022-12-07T11:55:54;4.10;;;2.72;;
20727;SDS011;10525;50.154;8.198;2022-12-07T11:58:35;2.38;;;2.17;;
20727;SDS011;10525;50.154;8.198;2022-12-07T12:01:11;3.00;;;2.80;;
20727;SDS011;10525;50.154;8.198;2022-12-07T12:03:46;4.55;;;2.28;;
20727;SDS011;10525;50.154;8.198;2022-12-07T12:06:15;7.65;;;2.50;;
20727;SDS011;10525;50.154;8.198;2022-12-07T12:08:43;8.77;;;3.08;;
20727;SDS011;10525;50.154;8.198;2022-12-07T12:11:17;3.75;;;2.95;;
20727;SDS011;10525;50.154;8.198;2022-12-07T12:13:59;6.45;;;3.20;;
20727;SDS011;10525;50.154;8.198;2022-12-07T12:16:51;2.75;;;2.17;;
20727;SDS011;10525;50.154;8.198;2022-12-07T12:19:41;2.90;;;2.35;;
20727;SDS011;10525;50.154;8.198;2022-12-07T12:22:10;8.48;;;3.10;;
20727;SDS011;10525;50.154;8.198;2022-12-07T12:24:42;6.25;;;2.72;;
20727;SDS011;10525;50.154;8.198;2022-12-07T12:27:15;3.53;;;2.70;;
20727;SDS011;10525;50.154;8.198;2022-12-07T12:29:50;2.80;;;2.60;;
20727;SDS011;10525;50.154;8.198;2022-12-07T12:32:20;2.45;;;2.28;;
20727;SDS011;10525;50.154;8.198;2022-12-07T12:35:00;2.80;;;2.55;;
20727;SDS011;10525;50.154;8.198;2022-12-07T12:37:46;5.50;;;2.65;;
20727;SDS011;10525;50.154;8.198;2022-12-07T12:46:36;6.35;;;2.58;;
20727;SDS011;10525;50.154;8.198;2022-12-07T12:55:13;2.22;;;2.10;;
20727;SDS011;10525;50.154;8.198;2022-12-07T12:57:46;2.30;;;2.10;;
20727;SDS011;10525;50.154;8.198;2022-12-07T13:00:17;3.10;;;2.50;;
20727;SDS011;10525;50.154;8.198;2022-12-07T13:02:48;4.35;;;2.95;;
20727;SDS011;10525;50.154;8.198;2022-12-07T13:05:17;6.50;;;2.58;;
20727;SDS011;10525;50.154;8.198;2022-12-07T13:07:53;4.35;;;2.60;;
20727;SDS011;10525;50.154;8.198;2022-12-07T13:10:24;5.78;;;2.55;;
20727;SDS011;10525;50.154;8.198;2022-12-07T13:13:30;5.85;;;2.45;;
20727;SDS011;10525;50.154;8.198;2022-12-07T13:25:07;2.53;;;2.28;;
20727;SDS011;10525;50.154;8.198;2022-12-07T13:27:37;11.48;;;2.50;;
20727;SDS011;10525;50.154;8.198;2022-12-07T13:30:11;5.78;;;2.70;;
20727;SDS011;10525;50.154;8.198;2022-12-07T13:32:40;3.65;;;2.38;;
20727;SDS011;10525;50.154;8.198;2022-12-07T13:37:56;6.85;;;2.30;;
20727;SDS011;10525;50.154;8.198;2022-12-07T13:40:24;5.10;;;2.30;;
20727;SDS011;10525;50.154;8.198;2022-12-07T13:42:56;2.15;;;1.80;;
20727;SDS011;10525;50.154;8.198;2022-12-07T13:45:26;2.22;;;1.17;;
20727;SDS011;10525;50.154;8.198;2022-12-07T13:48:08;3.25;;;1.50;;
20727;SDS011;10525;50.154;8.198;2022-12-07T13:50:40;2.75;;;1.25;;
20727;SDS011;10525;50.154;8.198;2022-12-07T13:53:11;1.90;;;1.63;;
20727;SDS011;10525;50.154;8.198;2022-12-07T13:55:44;1.95;;;1.80;;
20727;SDS011;10525;50.154;8.198;2022-12-07T13:58:12;5.47;;;2.08;;
20727;SDS011;10525;50.154;8.198;2022-12-07T14:00:40;3.92;;;1.42;;
20727;SDS011;10525;50.154;8.198;2022-12-07T14:03:23;2.45;;;1.70;;
20727;SDS011;10525;50.154;8.198;2022-12-07T14:06:03;5.25;;;1.58;;
20727;SDS011;10525;50.154;8.198;2022-12-07T14:08:50;3.30;;;1.35;;
20727;SDS011;10525;50.154;8.198;2022-12-07T14:11:17;3.70;;;1.80;;
20727;SDS011;10525;50.154;8.198;2022-12-07T14:13:56;2.97;;;2.05;;
20727;SDS011;10525;50.154;8.198;2022-12-07T14:16:28;8.52;;;2.33;;
20727;SDS011;10525;50.154;8.198;2022-12-07T14:18:58;2.03;;;1.90;;
20727;SDS011;10525;50.154;8.198;2022-12-07T14:21:27;5.32;;;2.33;;
20727;SDS011;10525;50.154;8.198;2022-12-07T14:26:42;4.78;;;3.63;;
20727;SDS011;10525;50.154;8.198;2022-12-07T14:29:27;2.63;;;2.50;;
20727;SDS011;10525;50.154;8.198;2022-12-07T14:31:59;1.85;;;1.75;;
20727;SDS011;10525;50.154;8.198;2022-12-07T14:34:52;3.88;;;2.00;;
20727;SDS011;10525;50.154;8.198;2022-12-07T14:37:29;2.03;;;1.85;;
20727;SDS011;10525;50.154;8.198;2022-12-07T14:39:57;3.33;;;1.92;;
20727;SDS011;10525;50.154;8.198;2022-12-07T14:42:24;3.35;;;2.63;;
20727;SDS011;10525;50.154;8.198;2022-12-07T14:44:54;9.32;;;2.70;;
20727;SDS011;10525;50.154;8.198;2022-12-07T14:47:22;3.05;;;2.72;;
20727;SDS011;10525;50.154;8.198;2022-12-07T14:49:49;5.97;;;3.25;;
20727;SDS011;10525;50.154;8.198;2022-12-07T14:52:16;8.70;;;4.25;;
20727;SDS011;10525;50.154;8.198;2022-12-07T14:54:45;7.47;;;3.70;;
20727;SDS011;10525;50.154;8.198;2022-12-07T14:57:12;9.02;;;4.20;;
20727;SDS011;10525;50.154;8.198;2022-12-07T14:59:39;8.10;;;3.72;;
20727;SDS011;10525;50.154;8.198;2022-12-07T15:02:06;5.47;;;3.05;;
20727;SDS011;10525;50.154;8.198;2022-12-07T15:04:37;7.63;;;2.83;;
20727;SDS011;10525;50.154;8.198;2022-12-07T15:07:05;2.97;;;2.70;;
20727;SDS011;10525;50.154;8.198;2022-12-07T15:09:35;2.08;;;1.98;;
20727;SDS011;10525;50.154;8.198;2022-12-07T15:12:01;2.65;;;1.80;;
20727;SDS011;10525;50.154;8.198;2022-12-07T15:14:28;7.78;;;1.83;;
20727;SDS011;10525;50.154;8.198;2022-12-07T15:16:56;1.90;;;1.90;;
20727;SDS011;10525;50.154;8.198;2022-12-07T15:19:23;2.20;;;1.88;;
20727;SDS011;10525;50.154;8.198;2022-12-07T15:21:52;3.63;;;2.15;;
20727;SDS011;10525;50.154;8.198;2022-12-07T15:24:19;1.90;;;1.80;;
20727;SDS011;10525;50.154;8.198;2022-12-07T15:26:48;8.73;;;2.50;;
20727;SDS011;10525;50.154;8.198;2022-12-07T15:29:15;3.93;;;2.60;;
20727;SDS011;10525;50.154;8.198;2022-12-07T15:31:42;4.20;;;2.75;;